sensor_id;sensor_type;location;lat;lon;timestamp;P1;durP1;ratioP1;P2;durP2;ratioP2
39294;SDS011;52361;52.100;5.248;2023-04-03T00:03:11;1.8;;;1.11;;
39294;SDS011;52361;52.100;5.248;2023-04-03T00:04:47;0.9;;;0.9;;
39294;SDS011;52361;52.100;5.248;2023-04-03T00:06:24;1.3;;;1.0;;
39294;SDS011;52361;52.100;5.248;2023-04-03T00:08:01;1.6;;;1.2;;
39294;SDS011;52361;52.100;5.248;2023-04-03T00:11:15;2.5;;;1.0;;
39294;SDS011;52361;52.100;5.248;2023-04-03T00:12:51;1.3;;;1.0;;
39294;SDS011;52361;52.100;5.248;2023-04-03T00:14:28;3.4;;;1.0;;
39294;SDS011;52361;52.100;5.248;2023-04-03T00:17:43;1.3;;;1.2;;
39294;SDS011;52361;52.100;5.248;2023-04-03T00:19:19;1.2;;;0.8;;
39294;SDS011;52361;52.100;5.248;2023-04-03T00:20:56;0.7;;;0.7;;
39294;SDS011;52361;52.100;5.248;2023-04-03T00:22:33;1.8;;;0.9;;
39294;SDS011;52361;52.100;5.248;2023-04-03T00:25:46;0.8;;;0.8;;
39294;SDS011;52361;52.100;5.248;2023-04-03T00:27:23;1.7;;;1.3;;
39294;SDS011;52361;52.100;5.248;2023-04-03T00:28:59;1.5;;;0.9;;
39294;SDS011;52361;52.100;5.248;2023-04-03T00:32:12;2.21;;;1.0;;
39294;SDS011;52361;52.100;5.248;2023-04-03T00:33:49;3.2;;;1.11;;
39294;SDS011;52361;52.100;5.248;2023-04-03T00:35:27;2.1;;;1.6;;
39294;SDS011;52361;52.100;5.248;2023-04-03T00:38:40;2.8;;;1.11;;
39294;SDS011;52361;52.100;5.248;2023-04-03T00:40:17;1.7;;;0.9;;
39294;SDS011;52361;52.100;5.248;2023-04-03T00:41:54;1.8;;;0.9;;
39294;SDS011;52361;52.100;5.248;2023-04-03T00:43:30;0.9;;;0.9;;
39294;SDS011;52361;52.100;5.248;2023-04-03T00:47:08;0.7;;;0.7;;
39294;SDS011;52361;52.100;5.248;2023-04-03T00:48:47;1.3;;;1.0;;
39294;SDS011;52361;52.100;5.248;2023-04-03T00:50:24;3.1;;;1.11;;
39294;SDS011;52361;52.100;5.248;2023-04-03T00:52:02;1.8;;;1.0;;
39294;SDS011;52361;52.100;5.248;2023-04-03T00:55:25;1.8;;;1.0;;
39294;SDS011;52361;52.100;5.248;2023-04-03T00:57:01;1.5;;;0.9;;
39294;SDS011;52361;52.100;5.248;2023-04-03T00:58:42;3.5;;;0.9;;
39294;SDS011;52361;52.100;5.248;2023-04-03T01:00:24;1.8;;;1.2;;
39294;SDS011;52361;52.100;5.248;2023-04-03T01:03:38;1.11;;;0.8;;
39294;SDS011;52361;52.100;5.248;2023-04-03T01:05:14;1.0;;;0.9;;
39294;SDS011;52361;52.100;5.248;2023-04-03T01:06:52;2.7;;;1.5;;
39294;SDS011;52361;52.100;5.248;2023-04-03T01:10:10;4.91;;;1.3;;
39294;SDS011;52361;52.100;5.248;2023-04-03T01:11:49;4.3;;;1.11;;
39294;SDS011;52361;52.100;5.248;2023-04-03T01:13:26;1.4;;;0.9;;
39294;SDS011;52361;52.100;5.248;2023-04-03T01:15:06;3.4;;;1.4;;
39294;SDS011;52361;52.100;5.248;2023-04-03T01:18:29;1.3;;;1.11;;
39294;SDS011;52361;52.100;5.248;2023-04-03T01:20:14;1.11;;;0.9;;
39294;SDS011;52361;52.100;5.248;2023-04-03T01:23:55;1.0;;;0.9;;
39294;SDS011;52361;52.100;5.248;2023-04-03T01:25:44;2.1;;;1.3;;
39294;SDS011;52361;52.100;5.248;2023-04-03T01:27:24;5.2;;;1.3;;
39294;SDS011;52361;52.100;5.248;2023-04-03T01:30:40;1.3;;;1.2;;
39294;SDS011;52361;52.100;5.248;2023-04-03T01:32:22;7.1;;;1.2;;
39294;SDS011;52361;52.100;5.248;2023-04-03T01:33:59;1.4;;;1.11;;
39294;SDS011;52361;52.100;5.248;2023-04-03T01:37:14;4.5;;;1.6;;
39294;SDS011;52361;52.100;5.248;2023-04-03T01:38:50;1.5;;;0.8;;
39294;SDS011;52361;52.100;5.248;2023-04-03T01:40:28;1.11;;;1.0;;
39294;SDS011;52361;52.100;5.248;2023-04-03T01:42:04;1.3;;;1.2;;
39294;SDS011;52361;52.100;5.248;2023-04-03T01:45:18;1.3;;;1.11;;
39294;SDS011;52361;52.100;5.248;2023-04-03T01:46:54;1.3;;;1.2;;
39294;SDS011;52361;52.100;5.248;2023-04-03T01:48:31;1.2;;;1.11;;
39294;SDS011;52361;52.100;5.248;2023-04-03T01:51:45;1.3;;;1.11;;
39294;SDS011;52361;52.100;5.248;2023-04-03T01:53:21;1.6;;;1.2;;
39294;SDS011;52361;52.100;5.248;2023-04-03T01:54:58;1.3;;;1.2;;
39294;SDS011;52361;52.100;5.248;2023-04-03T01:58:10;3.7;;;1.3;;
39294;SDS011;52361;52.100;5.248;2023-04-03T01:59:46;1.8;;;1.5;;
39294;SDS011;52361;52.100;5.248;2023-04-03T02:01:23;1.2;;;1.11;;
39294;SDS011;52361;52.100;5.248;2023-04-03T02:03:01;2.9;;;1.9;;
39294;SDS011;52361;52.100;5.248;2023-04-03T02:06:15;2.6;;;1.2;;
39294;SDS011;52361;52.100;5.248;2023-04-03T02:07:51;2.6;;;1.8;;
39294;SDS011;52361;52.100;5.248;2023-04-03T02:09:27;1.8;;;1.2;;
39294;SDS011;52361;52.100;5.248;2023-04-03T02:12:40;3.2;;;1.2;;
39294;SDS011;52361;52.100;5.248;2023-04-03T02:14:16;1.9;;;1.3;;
39294;SDS011;52361;52.100;5.248;2023-04-03T02:15:52;0.9;;;0.9;;
39294;SDS011;52361;52.100;5.248;2023-04-03T02:19:04;1.8;;;1.11;;
39294;SDS011;52361;52.100;5.248;2023-04-03T02:20:41;4.3;;;1.5;;
39294;SDS011;52361;52.100;5.248;2023-04-03T02:22:17;2.21;;;1.4;;
39294;SDS011;52361;52.100;5.248;2023-04-03T02:23:53;1.6;;;1.11;;
39294;SDS011;52361;52.100;5.248;2023-04-03T02:27:07;1.5;;;1.3;;
39294;SDS011;52361;52.100;5.248;2023-04-03T02:28:44;2.4;;;1.5;;
39294;SDS011;52361;52.100;5.248;2023-04-03T02:30:20;4.0;;;1.7;;
39294;SDS011;52361;52.100;5.248;2023-04-03T02:33:32;1.7;;;1.11;;
39294;SDS011;52361;52.100;5.248;2023-04-03T02:35:10;3.2;;;1.2;;
39294;SDS011;52361;52.100;5.248;2023-04-03T02:36:47;1.6;;;1.5;;
39294;SDS011;52361;52.100;5.248;2023-04-03T02:40:00;1.3;;;1.2;;
39294;SDS011;52361;52.100;5.248;2023-04-03T02:41:36;3.1;;;1.6;;
39294;SDS011;52361;52.100;5.248;2023-04-03T02:43:12;1.3;;;1.2;;
39294;SDS011;52361;52.100;5.248;2023-04-03T02:44:49;4.3;;;1.5;;
39294;SDS011;52361;52.100;5.248;2023-04-03T02:48:01;1.5;;;1.2;;
39294;SDS011;52361;52.100;5.248;2023-04-03T02:49:37;2.21;;;0.9;;
39294;SDS011;52361;52.100;5.248;2023-04-03T02:51:13;3.3;;;1.5;;
39294;SDS011;52361;52.100;5.248;2023-04-03T02:54:26;4.0;;;1.3;;
39294;SDS011;52361;52.100;5.248;2023-04-03T02:56:02;1.0;;;0.9;;
39294;SDS011;52361;52.100;5.248;2023-04-03T02:57:38;1.7;;;1.3;;
39294;SDS011;52361;52.100;5.248;2023-04-03T03:00:52;1.3;;;1.2;;
39294;SDS011;52361;52.100;5.248;2023-04-03T03:02:28;2.1;;;1.11;;
39294;SDS011;52361;52.100;5.248;2023-04-03T03:04:04;1.2;;;1.11;;
39294;SDS011;52361;52.100;5.248;2023-04-03T03:07:16;2.9;;;1.0;;
39294;SDS011;52361;52.100;5.248;2023-04-03T03:08:53;1.3;;;1.2;;
39294;SDS011;52361;52.100;5.248;2023-04-03T03:10:29;1.5;;;1.11;;
39294;SDS011;52361;52.100;5.248;2023-04-03T03:12:05;2.1;;;1.4;;
39294;SDS011;52361;52.100;5.248;2023-04-03T03:15:18;4.2;;;1.8;;
39294;SDS011;52361;52.100;5.248;2023-04-03T03:16:54;2.1;;;1.4;;
39294;SDS011;52361;52.100;5.248;2023-04-03T03:18:30;1.6;;;1.5;;
39294;SDS011;52361;52.100;5.248;2023-04-03T03:23:20;2.0;;;1.2;;
39294;SDS011;52361;52.100;5.248;2023-04-03T03:25:00;1.11;;;1.0;;
39294;SDS011;52361;52.100;5.248;2023-04-03T03:28:13;1.7;;;1.2;;
39294;SDS011;52361;52.100;5.248;2023-04-03T03:29:49;3.1;;;1.9;;
39294;SDS011;52361;52.100;5.248;2023-04-03T03:31:25;2.8;;;1.4;;
39294;SDS011;52361;52.100;5.248;2023-04-03T03:33:02;3.4;;;1.8;;
39294;SDS011;52361;52.100;5.248;2023-04-03T03:36:15;3.0;;;1.2;;
39294;SDS011;52361;52.100;5.248;2023-04-03T03:37:51;1.9;;;1.7;;
39294;SDS011;52361;52.100;5.248;2023-04-03T03:39:27;3.4;;;1.8;;
39294;SDS011;52361;52.100;5.248;2023-04-03T03:42:40;3.0;;;1.9;;
39294;SDS011;52361;52.100;5.248;2023-04-03T03:44:16;4.2;;;1.9;;
39294;SDS011;52361;52.100;5.248;2023-04-03T03:45:52;3.2;;;1.6;;
39294;SDS011;52361;52.100;5.248;2023-04-03T03:49:06;2.5;;;1.5;;
39294;SDS011;52361;52.100;5.248;2023-04-03T03:50:42;3.9;;;1.5;;
39294;SDS011;52361;52.100;5.248;2023-04-03T03:52:18;2.31;;;1.6;;
39294;SDS011;52361;52.100;5.248;2023-04-03T03:53:54;2.9;;;1.4;;
39294;SDS011;52361;52.100;5.248;2023-04-03T03:57:07;1.3;;;1.2;;
39294;SDS011;52361;52.100;5.248;2023-04-03T03:58:44;3.4;;;1.6;;
39294;SDS011;52361;52.100;5.248;2023-04-03T04:00:20;3.2;;;1.5;;
39294;SDS011;52361;52.100;5.248;2023-04-03T04:03:33;3.2;;;1.7;;
39294;SDS011;52361;52.100;5.248;2023-04-03T04:05:09;1.6;;;1.11;;
39294;SDS011;52361;52.100;5.248;2023-04-03T04:06:45;3.4;;;1.3;;
39294;SDS011;52361;52.100;5.248;2023-04-03T04:09:57;8.0;;;1.5;;
39294;SDS011;52361;52.100;5.248;2023-04-03T04:11:34;6.7;;;2.4;;
39294;SDS011;52361;52.100;5.248;2023-04-03T04:13:10;2.1;;;1.4;;
39294;SDS011;52361;52.100;5.248;2023-04-03T04:14:46;2.0;;;1.8;;
39294;SDS011;52361;52.100;5.248;2023-04-03T04:17:58;1.9;;;1.4;;
39294;SDS011;52361;52.100;5.248;2023-04-03T04:19:35;2.31;;;1.9;;
39294;SDS011;52361;52.100;5.248;2023-04-03T04:21:11;1.6;;;1.4;;
39294;SDS011;52361;52.100;5.248;2023-04-03T04:24:23;1.6;;;1.5;;
39294;SDS011;52361;52.100;5.248;2023-04-03T04:25:59;2.5;;;1.7;;
39294;SDS011;52361;52.100;5.248;2023-04-03T04:27:37;3.1;;;1.11;;
39294;SDS011;52361;52.100;5.248;2023-04-03T04:30:49;2.5;;;1.9;;
39294;SDS011;52361;52.100;5.248;2023-04-03T04:32:25;1.9;;;1.3;;
39294;SDS011;52361;52.100;5.248;2023-04-03T04:34:01;2.1;;;1.6;;
39294;SDS011;52361;52.100;5.248;2023-04-03T04:37:14;2.31;;;1.4;;
39294;SDS011;52361;52.100;5.248;2023-04-03T04:38:50;2.5;;;1.6;;
39294;SDS011;52361;52.100;5.248;2023-04-03T04:40:27;1.6;;;1.5;;
39294;SDS011;52361;52.100;5.248;2023-04-03T04:42:03;2.1;;;1.7;;
39294;SDS011;52361;52.100;5.248;2023-04-03T04:45:16;5.6;;;2.8;;
39294;SDS011;52361;52.100;5.248;2023-04-03T04:46:52;6.4;;;2.0;;
39294;SDS011;52361;52.100;5.248;2023-04-03T04:48:28;3.0;;;1.5;;
39294;SDS011;52361;52.100;5.248;2023-04-03T04:51:42;4.0;;;2.0;;
39294;SDS011;52361;52.100;5.248;2023-04-03T04:53:18;2.21;;;2.0;;
39294;SDS011;52361;52.100;5.248;2023-04-03T04:54:54;3.4;;;1.6;;
39294;SDS011;52361;52.100;5.248;2023-04-03T04:58:06;1.7;;;1.5;;
39294;SDS011;52361;52.100;5.248;2023-04-03T04:59:43;3.7;;;2.0;;
39294;SDS011;52361;52.100;5.248;2023-04-03T05:01:19;2.31;;;1.5;;
39294;SDS011;52361;52.100;5.248;2023-04-03T05:02:55;4.2;;;2.1;;
39294;SDS011;52361;52.100;5.248;2023-04-03T05:06:08;3.0;;;1.8;;
39294;SDS011;52361;52.100;5.248;2023-04-03T05:07:44;2.9;;;2.5;;
39294;SDS011;52361;52.100;5.248;2023-04-03T05:09:20;5.9;;;2.31;;
39294;SDS011;52361;52.100;5.248;2023-04-03T05:12:32;2.0;;;1.6;;
39294;SDS011;52361;52.100;5.248;2023-04-03T05:14:09;3.1;;;2.4;;
39294;SDS011;52361;52.100;5.248;2023-04-03T05:15:45;2.21;;;1.7;;
39294;SDS011;52361;52.100;5.248;2023-04-03T05:18:58;2.1;;;1.5;;
39294;SDS011;52361;52.100;5.248;2023-04-03T05:20:34;2.31;;;1.7;;
39294;SDS011;52361;52.100;5.248;2023-04-03T05:22:11;1.5;;;1.11;;
39294;SDS011;52361;52.100;5.248;2023-04-03T05:23:47;2.7;;;1.8;;
39294;SDS011;52361;52.100;5.248;2023-04-03T05:26:59;1.8;;;1.6;;
39294;SDS011;52361;52.100;5.248;2023-04-03T05:28:35;1.8;;;1.6;;
39294;SDS011;52361;52.100;5.248;2023-04-03T05:30:12;5.5;;;2.0;;
39294;SDS011;52361;52.100;5.248;2023-04-03T05:33:26;1.8;;;1.5;;
39294;SDS011;52361;52.100;5.248;2023-04-03T05:35:02;3.5;;;1.9;;
39294;SDS011;52361;52.100;5.248;2023-04-03T05:36:39;1.9;;;1.7;;
39294;SDS011;52361;52.100;5.248;2023-04-03T05:39:52;6.8;;;2.0;;
39294;SDS011;52361;52.100;5.248;2023-04-03T05:41:28;4.61;;;2.21;;
39294;SDS011;52361;52.100;5.248;2023-04-03T05:43:04;1.5;;;1.4;;
39294;SDS011;52361;52.100;5.248;2023-04-03T05:46:17;4.91;;;2.31;;
39294;SDS011;52361;52.100;5.248;2023-04-03T05:47:55;1.6;;;1.5;;
39294;SDS011;52361;52.100;5.248;2023-04-03T05:49:31;2.8;;;1.9;;
39294;SDS011;52361;52.100;5.248;2023-04-03T05:54:31;3.4;;;1.5;;
39294;SDS011;52361;52.100;5.248;2023-04-03T05:56:07;2.4;;;1.5;;
39294;SDS011;52361;52.100;5.248;2023-04-03T06:00:56;2.21;;;1.7;;
39294;SDS011;52361;52.100;5.248;2023-04-03T06:02:33;2.4;;;2.0;;
39294;SDS011;52361;52.100;5.248;2023-04-03T06:04:09;1.6;;;1.5;;
39294;SDS011;52361;52.100;5.248;2023-04-03T06:05:46;3.7;;;1.8;;
39294;SDS011;52361;52.100;5.248;2023-04-03T06:09:00;3.1;;;1.5;;
39294;SDS011;52361;52.100;5.248;2023-04-03T06:10:37;2.5;;;1.9;;
39294;SDS011;52361;52.100;5.248;2023-04-03T06:12:13;2.8;;;1.7;;
39294;SDS011;52361;52.100;5.248;2023-04-03T06:15:26;7.5;;;2.9;;
39294;SDS011;52361;52.100;5.248;2023-04-03T06:17:02;1.8;;;1.4;;
39294;SDS011;52361;52.100;5.248;2023-04-03T06:18:39;2.7;;;1.7;;
39294;SDS011;52361;52.100;5.248;2023-04-03T06:25:13;4.5;;;2.0;;
39294;SDS011;52361;52.100;5.248;2023-04-03T06:26:49;2.9;;;1.7;;
39294;SDS011;52361;52.100;5.248;2023-04-03T06:30:02;1.7;;;1.5;;
39294;SDS011;52361;52.100;5.248;2023-04-03T06:31:38;5.6;;;1.7;;
39294;SDS011;52361;52.100;5.248;2023-04-03T06:33:14;2.1;;;1.4;;
39294;SDS011;52361;52.100;5.248;2023-04-03T06:36:26;3.0;;;1.8;;
39294;SDS011;52361;52.100;5.248;2023-04-03T06:38:02;1.9;;;1.3;;
39294;SDS011;52361;52.100;5.248;2023-04-03T06:39:38;3.1;;;1.8;;
39294;SDS011;52361;52.100;5.248;2023-04-03T06:41:15;5.4;;;2.0;;
39294;SDS011;52361;52.100;5.248;2023-04-03T06:44:28;2.9;;;1.11;;
39294;SDS011;52361;52.100;5.248;2023-04-03T06:46:04;1.7;;;1.11;;
39294;SDS011;52361;52.100;5.248;2023-04-03T06:47:40;2.8;;;1.6;;
39294;SDS011;52361;52.100;5.248;2023-04-03T06:50:52;2.9;;;1.4;;
39294;SDS011;52361;52.100;5.248;2023-04-03T06:52:29;3.8;;;1.8;;
39294;SDS011;52361;52.100;5.248;2023-04-03T06:54:05;3.6;;;1.7;;
39294;SDS011;52361;52.100;5.248;2023-04-03T06:57:18;1.4;;;1.2;;
39294;SDS011;52361;52.100;5.248;2023-04-03T06:58:54;1.9;;;1.3;;
39294;SDS011;52361;52.100;5.248;2023-04-03T07:00:31;4.3;;;1.6;;
39294;SDS011;52361;52.100;5.248;2023-04-03T07:02:08;1.7;;;1.3;;
39294;SDS011;52361;52.100;5.248;2023-04-03T07:05:24;4.41;;;1.4;;
39294;SDS011;52361;52.100;5.248;2023-04-03T07:07:01;4.0;;;1.5;;
39294;SDS011;52361;52.100;5.248;2023-04-03T07:08:37;1.8;;;1.4;;
39294;SDS011;52361;52.100;5.248;2023-04-03T07:11:50;1.8;;;1.3;;
39294;SDS011;52361;52.100;5.248;2023-04-03T07:13:26;3.2;;;1.4;;
39294;SDS011;52361;52.100;5.248;2023-04-03T07:15:03;3.4;;;2.0;;
39294;SDS011;52361;52.100;5.248;2023-04-03T07:18:16;3.5;;;1.7;;
39294;SDS011;52361;52.100;5.248;2023-04-03T07:19:52;3.3;;;1.11;;
39294;SDS011;52361;52.100;5.248;2023-04-03T07:21:29;1.8;;;1.3;;
39294;SDS011;52361;52.100;5.248;2023-04-03T07:23:05;1.5;;;1.11;;
39294;SDS011;52361;52.100;5.248;2023-04-03T07:26:18;2.5;;;1.5;;
39294;SDS011;52361;52.100;5.248;2023-04-03T07:27:55;3.4;;;1.0;;
39294;SDS011;52361;52.100;5.248;2023-04-03T07:29:31;2.31;;;1.5;;
39294;SDS011;52361;52.100;5.248;2023-04-03T07:32:47;4.2;;;1.4;;
39294;SDS011;52361;52.100;5.248;2023-04-03T07:35:59;2.0;;;1.0;;
39294;SDS011;52361;52.100;5.248;2023-04-03T07:39:13;3.3;;;1.2;;
39294;SDS011;52361;52.100;5.248;2023-04-03T07:40:49;1.9;;;1.11;;
39294;SDS011;52361;52.100;5.248;2023-04-03T07:42:26;5.2;;;1.11;;
39294;SDS011;52361;52.100;5.248;2023-04-03T07:44:03;2.1;;;0.9;;
39294;SDS011;52361;52.100;5.248;2023-04-03T07:47:18;1.4;;;1.2;;
39294;SDS011;52361;52.100;5.248;2023-04-03T07:48:54;2.0;;;0.9;;
39294;SDS011;52361;52.100;5.248;2023-04-03T07:50:30;2.1;;;1.4;;
39294;SDS011;52361;52.100;5.248;2023-04-03T07:53:43;1.9;;;1.11;;
39294;SDS011;52361;52.100;5.248;2023-04-03T07:55:19;2.6;;;1.2;;
39294;SDS011;52361;52.100;5.248;2023-04-03T07:56:55;1.6;;;1.0;;
39294;SDS011;52361;52.100;5.248;2023-04-03T08:00:07;2.21;;;1.11;;
39294;SDS011;52361;52.100;5.248;2023-04-03T08:01:44;2.1;;;0.9;;
39294;SDS011;52361;52.100;5.248;2023-04-03T08:03:20;0.8;;;0.8;;
39294;SDS011;52361;52.100;5.248;2023-04-03T08:04:56;2.21;;;1.3;;
39294;SDS011;52361;52.100;5.248;2023-04-03T08:08:09;1.7;;;1.2;;
39294;SDS011;52361;52.100;5.248;2023-04-03T08:09:47;2.1;;;1.11;;
39294;SDS011;52361;52.100;5.248;2023-04-03T08:11:23;0.9;;;0.9;;
39294;SDS011;52361;52.100;5.248;2023-04-03T08:14:36;2.21;;;1.11;;
39294;SDS011;52361;52.100;5.248;2023-04-03T08:16:14;1.2;;;1.0;;
39294;SDS011;52361;52.100;5.248;2023-04-03T08:17:54;6.0;;;2.21;;
39294;SDS011;52361;52.100;5.248;2023-04-03T08:19:30;1.9;;;1.2;;
39294;SDS011;52361;52.100;5.248;2023-04-03T08:22:44;1.9;;;0.9;;
39294;SDS011;52361;52.100;5.248;2023-04-03T08:24:20;2.21;;;1.2;;
39294;SDS011;52361;52.100;5.248;2023-04-03T08:25:56;2.21;;;0.9;;
39294;SDS011;52361;52.100;5.248;2023-04-03T08:29:09;2.1;;;0.9;;
39294;SDS011;52361;52.100;5.248;2023-04-03T08:30:45;1.3;;;1.0;;
39294;SDS011;52361;52.100;5.248;2023-04-03T08:32:22;0.8;;;0.8;;
39294;SDS011;52361;52.100;5.248;2023-04-03T08:35:37;1.7;;;1.11;;
39294;SDS011;52361;52.100;5.248;2023-04-03T08:37:14;1.11;;;1.0;;
39294;SDS011;52361;52.100;5.248;2023-04-03T08:38:50;2.21;;;1.11;;
39294;SDS011;52361;52.100;5.248;2023-04-03T08:40:28;1.0;;;0.9;;
39294;SDS011;52361;52.100;5.248;2023-04-03T08:43:55;1.9;;;0.7;;
39294;SDS011;52361;52.100;5.248;2023-04-03T08:45:42;1.9;;;0.9;;
39294;SDS011;52361;52.100;5.248;2023-04-03T08:47:22;1.7;;;1.0;;
39294;SDS011;52361;52.100;5.248;2023-04-03T08:49:04;0.9;;;0.9;;
39294;SDS011;52361;52.100;5.248;2023-04-03T08:52:32;0.8;;;0.8;;
39294;SDS011;52361;52.100;5.248;2023-04-03T08:54:14;1.11;;;0.9;;
39294;SDS011;52361;52.100;5.248;2023-04-03T08:56:00;1.5;;;1.0;;
39294;SDS011;52361;52.100;5.248;2023-04-03T08:57:44;1.5;;;0.8;;
39294;SDS011;52361;52.100;5.248;2023-04-03T08:59:24;0.9;;;0.9;;
39294;SDS011;52361;52.100;5.248;2023-04-03T09:02:52;1.8;;;0.7;;
39294;SDS011;52361;52.100;5.248;2023-04-03T09:04:31;2.31;;;0.7;;
39294;SDS011;52361;52.100;5.248;2023-04-03T09:06:11;1.5;;;0.8;;
39294;SDS011;52361;52.100;5.248;2023-04-03T09:07:52;0.7;;;0.7;;
39294;SDS011;52361;52.100;5.248;2023-04-03T09:11:19;1.4;;;0.6;;
39294;SDS011;52361;52.100;5.248;2023-04-03T09:13:01;0.9;;;0.9;;
39294;SDS011;52361;52.100;5.248;2023-04-03T09:14:45;1.9;;;0.6;;
39294;SDS011;52361;52.100;5.248;2023-04-03T09:16:35;0.6;;;0.6;;
39294;SDS011;52361;52.100;5.248;2023-04-03T09:18:24;0.6;;;0.6;;
39294;SDS011;52361;52.100;5.248;2023-04-03T09:21:56;0.7;;;0.7;;
39294;SDS011;52361;52.100;5.248;2023-04-03T09:23:33;1.0;;;0.7;;
39294;SDS011;52361;52.100;5.248;2023-04-03T09:25:18;2.6;;;1.0;;
39294;SDS011;52361;52.100;5.248;2023-04-03T09:26:58;2.31;;;1.0;;
39294;SDS011;52361;52.100;5.248;2023-04-03T09:28:39;0.5;;;0.5;;
39294;SDS011;52361;52.100;5.248;2023-04-03T09:33:36;1.0;;;0.5;;
39294;SDS011;52361;52.100;5.248;2023-04-03T09:35:17;0.5;;;0.5;;
39294;SDS011;52361;52.100;5.248;2023-04-03T09:36:57;2.7;;;0.9;;
39294;SDS011;52361;52.100;5.248;2023-04-03T09:40:27;3.6;;;0.7;;
39294;SDS011;52361;52.100;5.248;2023-04-03T09:42:21;0.5;;;0.5;;
39294;SDS011;52361;52.100;5.248;2023-04-03T09:43:59;0.3;;;0.3;;
39294;SDS011;52361;52.100;5.248;2023-04-03T09:45:35;0.8;;;0.8;;
39294;SDS011;52361;52.100;5.248;2023-04-03T09:49:02;1.11;;;0.5;;
39294;SDS011;52361;52.100;5.248;2023-04-03T09:50:52;2.4;;;0.6;;
39294;SDS011;52361;52.100;5.248;2023-04-03T09:54:26;1.0;;;0.7;;
39294;SDS011;52361;52.100;5.248;2023-04-03T09:56:18;1.11;;;0.6;;
39294;SDS011;52361;52.100;5.248;2023-04-03T09:57:59;3.2;;;0.9;;
39294;SDS011;52361;52.100;5.248;2023-04-03T10:01:23;0.4;;;0.4;;
39294;SDS011;52361;52.100;5.248;2023-04-03T10:03:03;0.6;;;0.5;;
39294;SDS011;52361;52.100;5.248;2023-04-03T10:04:41;1.11;;;1.0;;
39294;SDS011;52361;52.100;5.248;2023-04-03T10:06:21;4.2;;;0.7;;
39294;SDS011;52361;52.100;5.248;2023-04-03T10:09:59;2.4;;;0.7;;
39294;SDS011;52361;52.100;5.248;2023-04-03T10:11:38;2.0;;;0.5;;
39294;SDS011;52361;52.100;5.248;2023-04-03T10:13:33;1.2;;;0.4;;
39294;SDS011;52361;52.100;5.248;2023-04-03T10:15:11;0.7;;;0.4;;
39294;SDS011;52361;52.100;5.248;2023-04-03T10:16:51;0.4;;;0.4;;
39294;SDS011;52361;52.100;5.248;2023-04-03T10:20:25;0.6;;;0.5;;
39294;SDS011;52361;52.100;5.248;2023-04-03T10:22:13;0.9;;;0.6;;
39294;SDS011;52361;52.100;5.248;2023-04-03T10:23:57;0.3;;;0.3;;
39294;SDS011;52361;52.100;5.248;2023-04-03T10:25:46;1.0;;;0.4;;
39294;SDS011;52361;52.100;5.248;2023-04-03T10:27:35;2.31;;;0.5;;
39294;SDS011;52361;52.100;5.248;2023-04-03T10:29:21;0.5;;;0.5;;
39294;SDS011;52361;52.100;5.248;2023-04-03T10:33:01;1.5;;;0.6;;
39294;SDS011;52361;52.100;5.248;2023-04-03T10:34:53;0.4;;;0.4;;
39294;SDS011;52361;52.100;5.248;2023-04-03T10:36:38;0.5;;;0.5;;
39294;SDS011;52361;52.100;5.248;2023-04-03T10:38:23;0.4;;;0.4;;
39294;SDS011;52361;52.100;5.248;2023-04-03T10:40:15;0.6;;;0.5;;
39294;SDS011;52361;52.100;5.248;2023-04-03T10:42:05;0.4;;;0.4;;
39294;SDS011;52361;52.100;5.248;2023-04-03T10:43:53;1.0;;;0.4;;
39294;SDS011;52361;52.100;5.248;2023-04-03T10:47:34;1.4;;;0.5;;
39294;SDS011;52361;52.100;5.248;2023-04-03T10:49:23;0.7;;;0.7;;
39294;SDS011;52361;52.100;5.248;2023-04-03T10:51:13;0.3;;;0.3;;
39294;SDS011;52361;52.100;5.248;2023-04-03T10:53:01;0.3;;;0.3;;
39294;SDS011;52361;52.100;5.248;2023-04-03T10:54:45;0.8;;;0.4;;
39294;SDS011;52361;52.100;5.248;2023-04-03T10:56:31;0.7;;;0.5;;
39294;SDS011;52361;52.100;5.248;2023-04-03T11:00:00;1.11;;;0.4;;
39294;SDS011;52361;52.100;5.248;2023-04-03T11:01:41;0.5;;;0.5;;
39294;SDS011;52361;52.100;5.248;2023-04-03T11:03:24;1.4;;;0.5;;
39294;SDS011;52361;52.100;5.248;2023-04-03T11:05:07;1.7;;;0.5;;
39294;SDS011;52361;52.100;5.248;2023-04-03T11:06:56;0.8;;;0.4;;
39294;SDS011;52361;52.100;5.248;2023-04-03T11:10:21;0.4;;;0.4;;
39294;SDS011;52361;52.100;5.248;2023-04-03T11:12:02;0.6;;;0.5;;
39294;SDS011;52361;52.100;5.248;2023-04-03T11:13:48;0.3;;;0.3;;
39294;SDS011;52361;52.100;5.248;2023-04-03T11:15:30;0.7;;;0.4;;
39294;SDS011;52361;52.100;5.248;2023-04-03T11:19:01;1.0;;;0.6;;
39294;SDS011;52361;52.100;5.248;2023-04-03T11:20:46;0.4;;;0.3;;
39294;SDS011;52361;52.100;5.248;2023-04-03T11:22:37;0.4;;;0.3;;
39294;SDS011;52361;52.100;5.248;2023-04-03T11:24:20;0.5;;;0.3;;
39294;SDS011;52361;52.100;5.248;2023-04-03T11:26:01;0.5;;;0.4;;
39294;SDS011;52361;52.100;5.248;2023-04-03T11:27:48;0.6;;;0.5;;
39294;SDS011;52361;52.100;5.248;2023-04-03T11:31:21;0.4;;;0.4;;
39294;SDS011;52361;52.100;5.248;2023-04-03T11:33:15;0.6;;;0.4;;
39294;SDS011;52361;52.100;5.248;2023-04-03T11:35:12;0.5;;;0.5;;
39294;SDS011;52361;52.100;5.248;2023-04-03T11:36:51;0.5;;;0.5;;
39294;SDS011;52361;52.100;5.248;2023-04-03T11:38:31;1.0;;;0.4;;
39294;SDS011;52361;52.100;5.248;2023-04-03T11:42:20;2.31;;;0.6;;
39294;SDS011;52361;52.100;5.248;2023-04-03T11:44:05;1.11;;;0.9;;
39294;SDS011;52361;52.100;5.248;2023-04-03T11:47:46;0.7;;;0.7;;
39294;SDS011;52361;52.100;5.248;2023-04-03T11:49:59;1.3;;;1.2;;
39294;SDS011;52361;52.100;5.248;2023-04-03T11:51:39;0.7;;;0.7;;
39294;SDS011;52361;52.100;5.248;2023-04-03T11:53:36;2.8;;;0.8;;
39294;SDS011;52361;52.100;5.248;2023-04-03T11:55:52;0.7;;;0.5;;
39294;SDS011;52361;52.100;5.248;2023-04-03T11:58:12;0.7;;;0.7;;
39294;SDS011;52361;52.100;5.248;2023-04-03T11:59:51;1.3;;;0.8;;
39294;SDS011;52361;52.100;5.248;2023-04-03T12:01:43;0.7;;;0.7;;
39294;SDS011;52361;52.100;5.248;2023-04-03T12:04:22;0.7;;;0.7;;
39294;SDS011;52361;52.100;5.248;2023-04-03T12:06:42;0.4;;;0.4;;
39294;SDS011;52361;52.100;5.248;2023-04-03T12:08:46;0.5;;;0.5;;
39294;SDS011;52361;52.100;5.248;2023-04-03T12:10:26;0.4;;;0.4;;
39294;SDS011;52361;52.100;5.248;2023-04-03T12:12:21;0.5;;;0.5;;
39294;SDS011;52361;52.100;5.248;2023-04-03T12:14:04;0.5;;;0.5;;
39294;SDS011;52361;52.100;5.248;2023-04-03T12:17:29;0.5;;;0.5;;
39294;SDS011;52361;52.100;5.248;2023-04-03T12:19:24;2.21;;;0.6;;
39294;SDS011;52361;52.100;5.248;2023-04-03T12:21:10;2.0;;;1.0;;
39294;SDS011;52361;52.100;5.248;2023-04-03T12:23:07;0.4;;;0.4;;
39294;SDS011;52361;52.100;5.248;2023-04-03T12:24:43;0.7;;;0.6;;
39294;SDS011;52361;52.100;5.248;2023-04-03T12:26:22;3.9;;;0.8;;
39294;SDS011;52361;52.100;5.248;2023-04-03T12:29:43;0.6;;;0.6;;
39294;SDS011;52361;52.100;5.248;2023-04-03T12:31:31;0.8;;;0.7;;
39294;SDS011;52361;52.100;5.248;2023-04-03T12:33:23;1.9;;;0.5;;
39294;SDS011;52361;52.100;5.248;2023-04-03T12:35:15;0.6;;;0.5;;
39294;SDS011;52361;52.100;5.248;2023-04-03T12:37:01;1.6;;;0.6;;
39294;SDS011;52361;52.100;5.248;2023-04-03T12:40:43;1.0;;;0.5;;
39294;SDS011;52361;52.100;5.248;2023-04-03T12:42:32;1.6;;;0.7;;
39294;SDS011;52361;52.100;5.248;2023-04-03T12:44:26;0.5;;;0.5;;
39294;SDS011;52361;52.100;5.248;2023-04-03T12:46:17;0.8;;;0.6;;
39294;SDS011;52361;52.100;5.248;2023-04-03T12:47:55;0.7;;;0.6;;
39294;SDS011;52361;52.100;5.248;2023-04-03T12:49:35;1.0;;;0.5;;
39294;SDS011;52361;52.100;5.248;2023-04-03T12:52:56;1.5;;;0.6;;
39294;SDS011;52361;52.100;5.248;2023-04-03T12:54:36;0.8;;;0.7;;
39294;SDS011;52361;52.100;5.248;2023-04-03T12:56:19;0.5;;;0.5;;
39294;SDS011;52361;52.100;5.248;2023-04-03T12:57:57;0.5;;;0.5;;
39294;SDS011;52361;52.100;5.248;2023-04-03T12:59:49;1.11;;;0.9;;
39294;SDS011;52361;52.100;5.248;2023-04-03T13:03:02;1.9;;;0.5;;
39294;SDS011;52361;52.100;5.248;2023-04-03T13:04:40;0.4;;;0.4;;
39294;SDS011;52361;52.100;5.248;2023-04-03T13:06:17;0.8;;;0.6;;
39294;SDS011;52361;52.100;5.248;2023-04-03T13:09:37;0.7;;;0.7;;
39294;SDS011;52361;52.100;5.248;2023-04-03T13:11:13;1.3;;;0.6;;
39294;SDS011;52361;52.100;5.248;2023-04-03T13:14:29;1.5;;;0.8;;
39294;SDS011;52361;52.100;5.248;2023-04-03T13:17:46;0.7;;;0.7;;
39294;SDS011;52361;52.100;5.248;2023-04-03T13:19:23;0.4;;;0.4;;
39294;SDS011;52361;52.100;5.248;2023-04-03T13:21:02;2.1;;;0.5;;